createdAt,value
2023-01-07T00:00:00.404Z,9.53
2023-01-07T00:01:00.326Z,9.49
2023-01-07T00:02:00.258Z,9.43
2023-01-07T00:03:00.365Z,9.39
2023-01-07T00:04:00.311Z,9.38
2023-01-07T00:05:00.249Z,9.35
2023-01-07T00:06:00.345Z,9.35
2023-01-07T00:07:00.248Z,9.35
2023-01-07T00:08:00.188Z,9.35
2023-01-07T00:09:00.185Z,9.34
2023-01-07T00:10:00.229Z,9.28
2023-01-07T00:11:00.194Z,9.25
2023-01-07T00:12:00.155Z,9.20
2023-01-07T00:13:00.167Z,9.15
2023-01-07T00:14:00.156Z,9.10
2023-01-07T00:15:00.101Z,9.10
2023-01-07T00:16:00.182Z,9.13
2023-01-07T00:17:00.123Z,9.16
2023-01-07T00:18:00.227Z,9.25
2023-01-07T00:19:00.100Z,9.31
2023-01-07T00:20:00.031Z,9.35
2023-01-07T00:21:00.055Z,9.40
2023-01-07T00:21:59.992Z,9.42
2023-01-07T00:23:00.014Z,9.42
2023-01-07T00:24:00.036Z,9.42
2023-01-07T00:24:59.997Z,9.45
2023-01-07T00:25:59.943Z,9.40
2023-01-07T00:26:59.943Z,9.34
2023-01-07T00:27:59.943Z,9.28
2023-01-07T00:28:59.918Z,9.25
2023-01-07T00:29:59.953Z,9.23
2023-01-07T00:30:59.982Z,9.23
2023-01-07T00:31:59.871Z,9.21
2023-01-07T00:32:59.895Z,9.18
2023-01-07T00:33:59.837Z,9.18
2023-01-07T00:34:59.837Z,9.15
2023-01-07T00:35:59.951Z,9.16
2023-01-07T00:36:59.824Z,9.16
2023-01-07T00:37:59.806Z,9.15
2023-01-07T00:38:59.838Z,9.16
2023-01-07T00:39:59.738Z,9.25
2023-01-07T00:40:59.761Z,9.31
2023-01-07T00:41:59.785Z,9.39
2023-01-07T00:42:59.700Z,9.43
2023-01-07T00:43:59.806Z,9.48
2023-01-07T00:44:59.685Z,9.52
2023-01-07T00:45:59.719Z,9.58
2023-01-07T00:46:59.750Z,9.58
2023-01-07T00:47:59.786Z,9.57
2023-01-07T00:48:59.701Z,9.53
2023-01-07T00:49:59.655Z,9.50
2023-01-07T00:50:59.610Z,9.48
2023-01-07T00:51:59.686Z,9.46
2023-01-07T00:52:59.583Z,9.45
2023-01-07T00:53:59.730Z,9.46
2023-01-07T00:54:59.590Z,9.46
2023-01-07T00:55:59.567Z,9.45
2023-01-07T00:56:59.569Z,9.48
2023-01-07T00:57:59.499Z,9.52
2023-01-07T00:58:59.524Z,9.58
2023-01-07T00:59:59.540Z,9.58
2023-01-07T01:00:59.652Z,9.61
2023-01-07T01:01:59.598Z,9.61
2023-01-07T01:02:59.516Z,9.63
2023-01-07T01:03:59.418Z,9.63
2023-01-07T01:04:59.471Z,9.66
2023-01-07T01:05:59.506Z,9.67
2023-01-07T01:06:59.406Z,9.67
2023-01-07T01:07:59.412Z,9.67
2023-01-07T01:08:59.376Z,9.67
2023-01-07T01:09:59.362Z,9.66
2023-01-07T01:10:59.382Z,9.67
2023-01-07T01:11:59.447Z,9.68
2023-01-07T01:12:59.325Z,9.67
2023-01-07T01:13:59.315Z,9.68
2023-01-07T01:14:59.314Z,9.71
2023-01-07T01:15:59.337Z,9.73
2023-01-07T01:16:59.314Z,9.73
2023-01-07T01:17:59.270Z,9.73
2023-01-07T01:18:59.256Z,9.71
2023-01-07T01:19:59.227Z,9.73
2023-01-07T01:20:59.209Z,9.71
2023-01-07T01:21:59.213Z,9.73
2023-01-07T01:22:59.240Z,9.75
2023-01-07T01:23:59.258Z,9.73
2023-01-07T01:24:59.191Z,9.71
2023-01-07T01:25:59.138Z,9.75
2023-01-07T01:26:59.130Z,9.73
2023-01-07T01:27:59.117Z,9.68
2023-01-07T01:28:59.137Z,9.64
2023-01-07T01:29:59.136Z,9.61
2023-01-07T01:30:59.091Z,9.58
2023-01-07T01:31:59.072Z,9.57
2023-01-07T01:32:59.070Z,9.56
2023-01-07T01:33:59.061Z,9.53
2023-01-07T01:34:59.052Z,9.58
2023-01-07T01:35:59.087Z,9.58
2023-01-07T01:36:59.034Z,9.58
2023-01-07T01:37:58.962Z,9.58
2023-01-07T01:38:58.991Z,9.63
2023-01-07T01:39:58.959Z,9.64
2023-01-07T01:40:58.950Z,9.68
2023-01-07T01:41:58.950Z,9.73
2023-01-07T01:42:59.890Z,9.73
2023-01-07T01:43:58.871Z,9.73
2023-01-07T01:44:58.927Z,9.70
2023-01-07T01:45:58.855Z,9.67
2023-01-07T01:46:58.990Z,9.67
2023-01-07T01:47:58.958Z,9.73
2023-01-07T01:48:58.862Z,9.76
2023-01-07T01:49:58.831Z,9.76
2023-01-07T01:50:58.830Z,9.76
2023-01-07T01:51:58.760Z,9.79
2023-01-07T01:52:58.811Z,9.81
2023-01-07T01:53:58.774Z,9.81
2023-01-07T01:54:58.752Z,9.79
2023-01-07T01:55:58.737Z,9.81
2023-01-07T01:56:58.726Z,9.79
2023-01-07T01:57:58.698Z,9.79
2023-01-07T01:58:58.757Z,9.79
2023-01-07T01:59:58.692Z,9.82
2023-01-07T02:00:58.786Z,9.81
2023-01-07T02:01:58.768Z,9.85
2023-01-07T02:02:58.667Z,9.89
2023-01-07T02:03:58.613Z,9.96
2023-01-07T02:04:58.647Z,9.94
2023-01-07T02:05:58.689Z,9.96
2023-01-07T02:06:58.586Z,9.99
2023-01-07T02:07:58.594Z,9.99
2023-01-07T02:08:58.555Z,10.03
2023-01-07T02:09:58.535Z,10.04
2023-01-07T02:10:58.559Z,10.07
2023-01-07T02:11:58.621Z,10.09
2023-01-07T02:12:58.531Z,10.10
2023-01-07T02:13:58.474Z,10.14
2023-01-07T02:14:58.482Z,10.12
2023-01-07T02:15:58.527Z,10.15
2023-01-07T02:16:58.480Z,10.15
2023-01-07T02:17:58.445Z,10.17
2023-01-07T02:18:58.419Z,10.17
2023-01-07T02:19:58.415Z,10.15
2023-01-07T02:20:58.387Z,10.15
2023-01-07T02:21:58.370Z,10.15
2023-01-07T02:22:58.396Z,10.15
2023-01-07T02:23:58.442Z,10.14
2023-01-07T02:24:58.367Z,10.15
2023-01-07T02:25:58.290Z,10.15
2023-01-07T02:26:58.306Z,10.19
2023-01-07T02:27:58.298Z,10.19
2023-01-07T02:28:58.300Z,10.21
2023-01-07T02:29:58.317Z,10.24
2023-01-07T02:30:58.298Z,10.25
2023-01-07T02:31:58.275Z,10.26
2023-01-07T02:32:58.267Z,10.33
2023-01-07T02:33:58.247Z,10.33
2023-01-07T02:34:58.230Z,10.34
2023-01-07T02:35:58.271Z,10.36
2023-01-07T02:36:58.205Z,10.36
2023-01-07T02:37:58.179Z,10.36
2023-01-07T02:38:58.142Z,10.37
2023-01-07T02:39:58.124Z,10.39
2023-01-07T02:40:58.126Z,10.42
2023-01-07T02:41:58.125Z,10.40
2023-01-07T02:42:58.123Z,10.44
2023-01-07T02:43:58.050Z,10.47
2023-01-07T02:44:58.084Z,10.46
2023-01-07T02:45:58.046Z,10.46
2023-01-07T02:46:58.049Z,10.46
2023-01-07T02:47:58.140Z,10.47
2023-01-07T02:48:58.009Z,10.47
2023-01-07T02:49:58.009Z,10.52
2023-01-07T02:50:58.008Z,10.52
2023-01-07T02:51:57.932Z,10.53
2023-01-07T02:52:57.975Z,10.55
2023-01-07T02:53:57.940Z,10.53
2023-01-07T02:54:57.936Z,10.55
2023-01-07T02:55:57.909Z,10.53
2023-01-07T02:56:57.919Z,10.52
2023-01-07T02:57:57.869Z,10.55
2023-01-07T02:58:57.927Z,10.53
2023-01-07T02:59:57.886Z,10.53
2023-01-07T03:00:57.943Z,10.56
2023-01-07T03:01:57.879Z,10.53
2023-01-07T03:02:57.813Z,10.53
2023-01-07T03:03:57.831Z,10.53
2023-01-07T03:04:57.822Z,10.53
2023-01-07T03:05:57.800Z,10.53
2023-01-07T03:06:57.763Z,10.56
2023-01-07T03:07:57.745Z,10.56
2023-01-07T03:08:57.738Z,10.58
2023-01-07T03:09:57.720Z,10.62
2023-01-07T03:10:57.751Z,10.63
2023-01-07T03:11:57.690Z,10.63
2023-01-07T03:12:57.723Z,10.60
2023-01-07T03:13:57.644Z,10.63
2023-01-07T03:14:57.644Z,10.65
2023-01-07T03:15:57.689Z,10.65
2023-01-07T03:16:57.620Z,10.65
2023-01-07T03:17:57.733Z,10.66
2023-01-07T03:18:57.617Z,10.70
2023-01-07T03:19:58.272Z,10.71
2023-01-07T03:20:57.583Z,10.68
2023-01-07T03:21:57.558Z,10.71
2023-01-07T03:22:57.571Z,10.71
2023-01-07T03:23:57.605Z,10.71
2023-01-07T03:24:57.550Z,10.71
2023-01-07T03:25:57.475Z,10.71
2023-01-07T03:26:57.497Z,10.73
2023-01-07T03:27:57.472Z,10.74
2023-01-07T03:28:57.491Z,10.73
2023-01-07T03:29:57.489Z,10.71
2023-01-07T03:30:57.451Z,10.70
2023-01-07T03:31:57.444Z,10.73
2023-01-07T03:32:57.441Z,10.71
2023-01-07T03:33:57.368Z,10.73
2023-01-07T03:34:57.431Z,10.73
2023-01-07T03:35:57.489Z,10.70
2023-01-07T03:36:57.376Z,10.66
2023-01-07T03:37:57.300Z,10.65
2023-01-07T03:38:57.335Z,10.65
2023-01-07T03:39:57.323Z,10.62
2023-01-07T03:40:57.309Z,10.60
2023-01-07T03:41:57.319Z,10.66
2023-01-07T03:42:57.296Z,10.63
2023-01-07T03:43:57.251Z,10.66
2023-01-07T03:44:57.284Z,10.68
2023-01-07T03:45:57.236Z,10.70
2023-01-07T03:46:57.256Z,10.71
2023-01-07T03:47:57.230Z,10.71
2023-01-07T03:48:57.216Z,10.70
2023-01-07T03:49:57.184Z,10.71
2023-01-07T03:50:57.214Z,10.74
2023-01-07T03:51:57.154Z,10.76
2023-01-07T03:52:57.173Z,10.76
2023-01-07T03:53:57.227Z,10.74
2023-01-07T03:54:57.125Z,10.77
2023-01-07T03:55:57.100Z,10.76
2023-01-07T03:56:57.101Z,10.73
2023-01-07T03:57:57.106Z,10.71
2023-01-07T03:58:57.095Z,10.70
2023-01-07T03:59:57.073Z,10.73
2023-01-07T04:00:57.146Z,10.68
2023-01-07T04:01:57.149Z,10.66
2023-01-07T04:02:57.022Z,10.70
2023-01-07T04:03:57.053Z,10.71
2023-01-07T04:04:56.979Z,10.70
2023-01-07T04:05:56.997Z,10.68
2023-01-07T04:06:56.983Z,10.68
2023-01-07T04:07:56.936Z,10.66
2023-01-07T04:08:56.934Z,10.70
2023-01-07T04:09:56.935Z,10.68
2023-01-07T04:10:56.940Z,10.66
2023-01-07T04:11:56.891Z,10.65
2023-01-07T04:12:56.897Z,10.63
2023-01-07T04:13:56.837Z,10.62
2023-01-07T04:14:59.103Z,10.63
2023-01-07T04:15:56.820Z,10.63
2023-01-07T04:16:56.841Z,10.59
2023-01-07T04:17:56.838Z,10.59
2023-01-07T04:18:56.840Z,10.59
2023-01-07T04:19:56.747Z,10.58
2023-01-07T04:20:56.791Z,10.58
2023-01-07T04:21:56.725Z,10.55
2023-01-07T04:22:56.754Z,10.53
2023-01-07T04:23:56.779Z,10.51
2023-01-07T04:24:56.732Z,10.47
2023-01-07T04:25:56.668Z,10.47
2023-01-07T04:26:56.680Z,10.53
2023-01-07T04:27:56.672Z,10.53
2023-01-07T04:29:00.915Z,10.51
2023-01-07T04:29:56.757Z,10.53
2023-01-07T04:30:56.709Z,10.52
2023-01-07T04:31:56.580Z,10.47
2023-01-07T04:32:56.624Z,10.46
2023-01-07T04:33:56.598Z,10.44
2023-01-07T04:34:56.569Z,10.43
2023-01-07T04:35:56.595Z,10.43
2023-01-07T04:36:56.550Z,10.40
2023-01-07T04:37:56.537Z,10.40
2023-01-07T04:38:56.558Z,10.39
2023-01-07T04:39:56.470Z,10.39
2023-01-07T04:40:56.493Z,10.40
2023-01-07T04:41:56.581Z,10.44
2023-01-07T04:42:56.500Z,10.46
2023-01-07T04:43:56.432Z,10.46
2023-01-07T04:44:56.496Z,10.51
2023-01-07T04:45:56.422Z,10.47
2023-01-07T04:46:56.402Z,10.51
2023-01-07T04:47:56.462Z,10.52
2023-01-07T04:48:56.386Z,10.52
2023-01-07T04:49:56.381Z,10.52
2023-01-07T04:50:56.380Z,10.47
2023-01-07T04:51:56.324Z,10.51
2023-01-07T04:52:56.353Z,10.47
2023-01-07T04:53:56.404Z,10.47
2023-01-07T04:54:56.302Z,10.51
2023-01-07T04:55:56.307Z,10.52
2023-01-07T04:56:56.270Z,10.55
2023-01-07T04:57:56.260Z,10.56
2023-01-07T04:58:56.217Z,10.55
2023-01-07T04:59:56.302Z,10.56
2023-01-07T05:00:56.220Z,10.56
2023-01-07T05:01:56.331Z,10.53
2023-01-07T05:02:56.184Z,10.55
2023-01-07T05:03:56.189Z,10.52
2023-01-07T05:04:56.176Z,10.58
2023-01-07T05:05:56.268Z,10.59
2023-01-07T05:06:56.122Z,10.63
2023-01-07T05:07:56.146Z,10.62
2023-01-07T05:08:56.090Z,10.60
2023-01-07T05:09:56.145Z,10.59
2023-01-07T05:10:56.079Z,10.58
2023-01-07T05:11:56.186Z,10.56
2023-01-07T05:12:56.030Z,10.56
2023-01-07T05:13:56.073Z,10.60
2023-01-07T05:14:56.034Z,10.59
2023-01-07T05:15:56.019Z,10.59
2023-01-07T05:16:56.081Z,10.56
2023-01-07T05:17:56.122Z,10.55
2023-01-07T05:18:55.949Z,10.53
2023-01-07T05:19:55.968Z,10.51
2023-01-07T05:20:55.907Z,10.52
2023-01-07T05:21:55.969Z,10.52
2023-01-07T05:22:55.918Z,10.52
2023-01-07T05:23:55.958Z,10.52
2023-01-07T05:24:55.895Z,10.53
2023-01-07T05:25:55.898Z,10.53
2023-01-07T05:26:55.837Z,10.55
2023-01-07T05:27:55.879Z,10.56
2023-01-07T05:28:55.849Z,10.56
2023-01-07T05:29:55.972Z,10.56
2023-01-07T05:30:55.825Z,10.53
2023-01-07T05:31:55.822Z,10.55
2023-01-07T05:32:55.776Z,10.55
2023-01-07T05:33:55.805Z,10.56
2023-01-07T05:34:55.751Z,10.58
2023-01-07T05:35:55.783Z,10.62
2023-01-07T05:36:55.741Z,10.60
2023-01-07T05:37:55.709Z,10.59
2023-01-07T05:38:55.675Z,10.56
2023-01-07T05:39:55.726Z,10.58
2023-01-07T05:40:55.648Z,10.55
2023-01-07T05:41:55.727Z,10.53
2023-01-07T05:42:55.649Z,10.53
2023-01-07T05:43:55.656Z,10.52
2023-01-07T05:44:55.596Z,10.51
2023-01-07T05:45:55.661Z,10.51
2023-01-07T05:46:55.676Z,10.51
2023-01-07T05:47:55.708Z,10.51
2023-01-07T05:48:55.572Z,10.51
2023-01-07T05:49:55.560Z,10.52
2023-01-07T05:50:55.520Z,10.47
2023-01-07T05:51:55.545Z,10.51
2023-01-07T05:52:55.484Z,10.47
2023-01-07T05:53:55.564Z,10.43
2023-01-07T05:54:55.488Z,10.42
2023-01-07T05:55:55.473Z,10.37
2023-01-07T05:56:55.467Z,10.37
2023-01-07T05:57:55.445Z,10.36
2023-01-07T05:58:55.418Z,10.36
2023-01-07T05:59:55.465Z,10.33
2023-01-07T06:00:55.442Z,10.32
2023-01-07T06:01:55.422Z,10.26
2023-01-07T06:02:55.374Z,10.25
2023-01-07T06:03:55.457Z,10.24
2023-01-07T06:04:55.412Z,10.24
2023-01-07T06:05:55.456Z,10.21
2023-01-07T06:06:55.285Z,10.19
2023-01-07T06:07:55.341Z,10.17
2023-01-07T06:08:55.258Z,10.15
2023-01-07T06:09:55.307Z,10.12
2023-01-07T06:10:55.257Z,10.09
2023-01-07T06:11:55.284Z,10.07
2023-01-07T06:12:55.230Z,10.04
2023-01-07T06:13:55.231Z,10.03
2023-01-07T06:14:55.184Z,10.03
2023-01-07T06:15:55.261Z,10.00
2023-01-07T06:16:55.187Z,9.99
2023-01-07T06:17:55.276Z,9.96
2023-01-07T06:18:55.144Z,9.96
2023-01-07T06:19:55.175Z,9.91
2023-01-07T06:20:55.093Z,9.88
2023-01-07T06:21:55.130Z,9.83
2023-01-07T06:22:55.105Z,9.81
2023-01-07T06:23:55.113Z,9.76
2023-01-07T06:24:55.071Z,9.73
2023-01-07T06:25:55.055Z,9.70
2023-01-07T06:26:55.025Z,9.66
2023-01-07T06:27:55.051Z,9.64
2023-01-07T06:28:54.987Z,9.67
2023-01-07T06:29:55.062Z,9.70
2023-01-07T06:30:55.037Z,9.75
2023-01-07T06:31:54.980Z,9.76
2023-01-07T06:32:54.927Z,9.81
2023-01-07T06:33:54.975Z,9.81
2023-01-07T06:34:54.926Z,9.85
2023-01-07T06:35:54.954Z,9.86
2023-01-07T06:36:54.920Z,9.86
2023-01-07T06:37:54.888Z,9.86
2023-01-07T06:38:54.859Z,9.91
2023-01-07T06:39:54.898Z,9.96
2023-01-07T06:40:54.850Z,9.97
2023-01-07T06:41:55.016Z,9.99
2023-01-07T06:42:54.833Z,9.99
2023-01-07T06:43:54.812Z,10.01
2023-01-07T06:44:54.797Z,10.01
2023-01-07T06:45:54.815Z,10.04
2023-01-07T06:46:54.744Z,10.03
2023-01-07T06:47:54.907Z,10.04
2023-01-07T06:48:54.737Z,10.01
2023-01-07T06:49:54.730Z,10.00
2023-01-07T06:50:54.684Z,9.99
2023-01-07T06:51:54.734Z,9.97
2023-01-07T06:52:54.664Z,9.93
2023-01-07T06:53:54.729Z,9.96
2023-01-07T06:54:54.661Z,9.96
2023-01-07T06:55:54.651Z,9.97
2023-01-07T06:56:54.674Z,9.97
2023-01-07T06:57:54.624Z,9.97
2023-01-07T06:58:54.574Z,9.96
2023-01-07T06:59:54.750Z,9.93
2023-01-07T07:00:54.602Z,9.93
2023-01-07T07:01:54.741Z,9.91
2023-01-07T07:02:54.658Z,9.89
2023-01-07T07:03:54.535Z,9.88
2023-01-07T07:04:54.525Z,9.93
2023-01-07T07:05:54.673Z,9.93
2023-01-07T07:06:54.488Z,9.91
2023-01-07T07:07:54.528Z,9.91
2023-01-07T07:08:54.440Z,9.89
2023-01-07T07:09:54.495Z,9.89
2023-01-07T07:10:54.477Z,9.88
2023-01-07T07:11:54.451Z,9.86
2023-01-07T07:12:54.414Z,9.83
2023-01-07T07:13:54.412Z,9.79
2023-01-07T07:14:54.412Z,9.78
2023-01-07T07:15:54.475Z,9.76
2023-01-07T07:16:54.321Z,9.71
2023-01-07T07:17:54.420Z,9.67
2023-01-07T07:18:54.331Z,9.66
2023-01-07T07:19:54.332Z,9.61
2023-01-07T07:20:54.278Z,9.57
2023-01-07T07:21:54.315Z,9.53
2023-01-07T07:22:54.289Z,9.48
2023-01-07T07:23:54.293Z,9.43
2023-01-07T07:24:54.256Z,9.43
2023-01-07T07:25:54.236Z,9.42
2023-01-07T07:26:54.193Z,9.39
2023-01-07T07:27:54.229Z,9.35
2023-01-07T07:28:54.161Z,9.31
2023-01-07T07:29:54.328Z,9.30
2023-01-07T07:30:54.226Z,9.27
2023-01-07T07:31:54.158Z,9.23
2023-01-07T07:32:54.150Z,9.21
2023-01-07T07:33:54.125Z,9.18
2023-01-07T07:34:54.085Z,9.15
2023-01-07T07:35:54.167Z,9.15
2023-01-07T07:36:54.090Z,9.12
2023-01-07T07:37:54.076Z,9.21
2023-01-07T07:38:54.034Z,9.23
2023-01-07T07:39:54.088Z,9.20
2023-01-07T07:40:53.991Z,9.18
2023-01-07T07:41:54.102Z,9.20
2023-01-07T07:43:10.991Z,9.15
2023-01-07T07:43:54.989Z,9.12
2023-01-07T07:44:53.965Z,9.13
2023-01-07T07:45:53.973Z,9.15
2023-01-07T07:46:53.964Z,9.16
2023-01-07T07:47:53.988Z,9.15
2023-01-07T07:48:53.919Z,9.18
2023-01-07T07:49:53.984Z,9.18
2023-01-07T07:50:53.912Z,9.16
2023-01-07T07:51:53.948Z,9.20
2023-01-07T07:52:53.859Z,9.20
2023-01-07T07:53:53.935Z,9.18
2023-01-07T07:54:53.864Z,9.20
2023-01-07T07:55:53.839Z,9.20
2023-01-07T07:56:53.821Z,9.21
2023-01-07T07:57:53.829Z,9.21
2023-01-07T07:58:53.810Z,9.16
2023-01-07T07:59:53.839Z,9.18
2023-01-07T08:00:53.774Z,9.20
2023-01-07T08:01:53.800Z,9.23
2023-01-07T08:02:53.849Z,9.23
2023-01-07T08:03:53.737Z,9.24
2023-01-07T08:04:53.709Z,9.21
2023-01-07T08:05:53.734Z,9.21
2023-01-07T08:06:53.663Z,9.24
2023-01-07T08:07:53.707Z,9.23
2023-01-07T08:08:53.677Z,9.21
2023-01-07T08:09:54.371Z,9.18
2023-01-07T08:10:53.637Z,9.15
2023-01-07T08:11:53.686Z,9.13
2023-01-07T08:12:53.613Z,9.16
2023-01-07T08:13:53.605Z,9.24
2023-01-07T08:14:53.589Z,9.40
2023-01-07T08:15:53.625Z,9.56
2023-01-07T08:16:53.521Z,9.75
2023-01-07T08:17:53.584Z,10.00
2023-01-07T08:18:53.596Z,10.12
2023-01-07T08:19:53.532Z,10.15
2023-01-07T08:20:53.525Z,10.06
2023-01-07T08:21:53.488Z,9.99
2023-01-07T08:22:53.449Z,9.93
2023-01-07T08:23:53.595Z,9.88
2023-01-07T08:24:53.444Z,9.81
2023-01-07T08:25:53.433Z,9.75
2023-01-07T08:26:53.388Z,9.68
2023-01-07T08:27:53.435Z,9.67
2023-01-07T08:28:53.370Z,9.64
2023-01-07T08:29:53.515Z,9.63
2023-01-07T08:30:53.372Z,9.63
2023-01-07T08:31:53.361Z,9.64
2023-01-07T08:32:53.330Z,9.60
2023-01-07T08:33:53.332Z,9.63
2023-01-07T08:34:53.283Z,9.63
2023-01-07T08:35:53.355Z,9.68
2023-01-07T08:36:53.251Z,9.70
2023-01-07T08:37:53.299Z,9.76
2023-01-07T08:38:53.294Z,9.78
2023-01-07T08:39:53.266Z,9.79
2023-01-07T08:40:53.214Z,9.82
2023-01-07T08:41:53.361Z,9.82
2023-01-07T08:42:53.216Z,9.85
2023-01-07T08:43:53.239Z,9.86
2023-01-07T08:44:53.170Z,9.88
2023-01-07T08:45:53.172Z,9.89
2023-01-07T08:46:53.207Z,9.93
2023-01-07T08:47:53.181Z,9.94
2023-01-07T08:48:53.089Z,9.94
2023-01-07T08:49:53.154Z,9.97
2023-01-07T08:50:53.113Z,9.97
2023-01-07T08:51:53.092Z,10.00
2023-01-07T08:52:53.098Z,10.00
2023-01-07T08:53:53.121Z,10.01
2023-01-07T08:54:53.018Z,10.01
2023-01-07T08:55:53.088Z,10.01
2023-01-07T08:56:53.022Z,10.01
2023-01-07T08:57:53.015Z,10.00
2023-01-07T08:58:52.962Z,10.00
2023-01-07T08:59:53.107Z,9.99
2023-01-07T09:00:53.076Z,10.00
2023-01-07T09:01:53.061Z,9.99
2023-01-07T09:02:52.992Z,9.99
2023-01-07T09:03:52.922Z,9.99
2023-01-07T09:04:52.907Z,10.00
2023-01-07T09:05:53.005Z,10.00
2023-01-07T09:06:52.841Z,10.01
2023-01-07T09:07:52.895Z,10.01
2023-01-07T09:08:52.829Z,10.03
2023-01-07T09:09:52.877Z,10.04
2023-01-07T09:10:52.818Z,10.06
2023-01-07T09:11:52.851Z,10.07
2023-01-07T09:12:52.798Z,10.09
2023-01-07T09:13:52.793Z,10.09
2023-01-07T09:14:52.792Z,10.09
2023-01-07T09:15:52.759Z,10.09
2023-01-07T09:16:52.773Z,10.10
2023-01-07T09:17:52.746Z,10.12
2023-01-07T09:18:52.711Z,10.14
2023-01-07T09:19:52.724Z,10.14
2023-01-07T09:20:52.681Z,10.14
2023-01-07T09:21:52.684Z,10.15
2023-01-07T09:22:52.692Z,10.17
2023-01-07T09:23:52.673Z,10.18
2023-01-07T09:24:52.663Z,10.21
2023-01-07T09:25:52.580Z,10.21
2023-01-07T09:26:52.605Z,10.22
2023-01-07T09:27:52.574Z,10.25
2023-01-07T09:28:52.603Z,10.26
2023-01-07T09:29:52.557Z,10.26
2023-01-07T09:30:52.539Z,10.33
2023-01-07T09:31:52.639Z,10.36
2023-01-07T09:32:52.520Z,10.34
2023-01-07T09:33:52.506Z,10.36
2023-01-07T09:34:52.523Z,10.36
2023-01-07T09:35:52.565Z,10.34
2023-01-07T09:36:52.526Z,10.34
2023-01-07T09:37:52.421Z,10.33
2023-01-07T09:38:52.439Z,10.34
2023-01-07T09:39:52.442Z,10.34
2023-01-07T09:40:52.410Z,10.34
2023-01-07T09:41:52.427Z,10.37
2023-01-07T09:42:52.429Z,10.40
2023-01-07T09:43:59.339Z,10.37
2023-01-07T09:44:53.360Z,10.37
2023-01-07T09:45:52.440Z,10.43
2023-01-07T09:46:52.362Z,10.43
2023-01-07T09:47:52.331Z,10.43
2023-01-07T09:48:52.321Z,10.43
2023-01-07T09:49:52.253Z,10.43
2023-01-07T09:50:52.272Z,10.44
2023-01-07T09:51:52.254Z,10.44
2023-01-07T09:52:52.264Z,10.44
2023-01-07T09:53:52.343Z,10.44
2023-01-07T09:54:52.250Z,10.44
2023-01-07T09:56:10.887Z,10.44
2023-01-07T09:56:53.235Z,10.44
2023-01-07T09:57:52.146Z,10.44
2023-01-07T09:58:52.164Z,10.44
2023-01-07T09:59:52.188Z,10.44
2023-01-07T10:00:52.169Z,10.46
2023-01-07T10:01:52.102Z,10.46
2023-01-07T10:02:52.133Z,10.47
2023-01-07T10:03:52.142Z,10.47
2023-01-07T10:04:52.075Z,10.51
2023-01-07T10:05:52.169Z,10.52
2023-01-07T10:06:52.074Z,10.51
2023-01-07T10:07:52.009Z,10.53
2023-01-07T10:08:52.044Z,10.53
2023-01-07T10:09:51.975Z,10.55
2023-01-07T10:10:51.995Z,10.56
2023-01-07T10:11:52.010Z,10.58
2023-01-07T10:12:51.974Z,10.59
2023-01-07T10:13:52.925Z,10.59
2023-01-07T10:14:51.970Z,10.59
2023-01-07T10:15:51.901Z,10.59
2023-01-07T10:16:52.017Z,10.59
2023-01-07T10:17:51.988Z,10.59
2023-01-07T10:18:51.886Z,10.60
2023-01-07T10:19:51.876Z,10.59
2023-01-07T10:20:51.859Z,10.62
2023-01-07T10:21:51.836Z,10.60
2023-01-07T10:22:51.860Z,10.63
2023-01-07T10:23:51.832Z,10.65
2023-01-07T10:24:51.819Z,10.66
2023-01-07T10:25:51.765Z,10.70
2023-01-07T10:26:51.778Z,10.70
2023-01-07T10:27:51.761Z,10.73
2023-01-07T10:28:51.761Z,10.76
2023-01-07T10:29:51.762Z,10.77
2023-01-07T10:30:51.772Z,10.76
2023-01-07T10:31:51.724Z,10.77
2023-01-07T10:32:51.696Z,10.77
2023-01-07T10:33:51.687Z,10.78
2023-01-07T10:34:51.715Z,10.81
2023-01-07T10:35:51.671Z,10.83
2023-01-07T10:36:51.666Z,10.83
2023-01-07T10:37:51.598Z,10.86
2023-01-07T10:38:51.616Z,10.91
2023-01-07T10:39:51.603Z,10.92
2023-01-07T10:40:51.586Z,10.95
2023-01-07T10:41:51.685Z,10.99
2023-01-07T10:42:51.582Z,10.99
2023-01-07T10:43:51.520Z,11.01
2023-01-07T10:44:51.569Z,11.03
2023-01-07T10:45:51.540Z,11.03
2023-01-07T10:46:51.499Z,11.06
2023-01-07T10:47:51.532Z,11.07
2023-01-07T10:48:51.522Z,11.06
2023-01-07T10:49:51.420Z,11.06
2023-01-07T10:50:51.466Z,11.06
2023-01-07T10:51:51.433Z,11.06
2023-01-07T10:52:51.421Z,11.07
2023-01-07T10:53:51.438Z,11.07
2023-01-07T10:54:51.428Z,11.09
2023-01-07T10:55:51.364Z,11.11
2023-01-07T10:56:51.399Z,11.11
2023-01-07T10:57:51.313Z,11.09
2023-01-07T10:58:51.363Z,11.09
2023-01-07T10:59:51.391Z,11.03
2023-01-07T11:00:51.392Z,11.03
2023-01-07T11:01:51.387Z,11.03
2023-01-07T11:02:51.377Z,11.02
2023-01-07T11:03:51.246Z,11.02
2023-01-07T11:04:51.255Z,11.02
2023-01-07T11:05:51.369Z,11.01
2023-01-07T11:06:51.276Z,11.02
2023-01-07T11:07:51.199Z,11.02
2023-01-07T11:08:51.233Z,11.01
2023-01-07T11:09:51.166Z,11.02
2023-01-07T11:10:51.191Z,11.02
2023-01-07T11:11:51.284Z,11.03
2023-01-07T11:12:51.160Z,11.06
2023-01-07T11:13:51.135Z,11.06
2023-01-07T11:14:51.154Z,11.09
2023-01-07T11:15:51.090Z,11.10
2023-01-07T11:16:51.189Z,11.11
2023-01-07T11:17:51.169Z,11.13
2023-01-07T11:18:51.072Z,11.11
2023-01-07T11:19:51.056Z,11.11
2023-01-07T11:20:51.068Z,11.11
2023-01-07T11:21:51.028Z,11.11
2023-01-07T11:22:51.053Z,11.11
2023-01-07T11:23:51.100Z,11.14
2023-01-07T11:24:51.020Z,11.16
2023-01-07T11:25:50.957Z,11.13
2023-01-07T11:26:50.965Z,11.14
2023-01-07T11:27:50.946Z,11.17
2023-01-07T11:28:50.941Z,11.17
2023-01-07T11:29:51.509Z,11.19
2023-01-07T11:30:50.931Z,11.20
2023-01-07T11:31:50.968Z,11.21
2023-01-07T11:32:50.911Z,11.24
2023-01-07T11:34:02.718Z,11.24
2023-01-07T11:34:51.971Z,11.21
2023-01-07T11:35:50.845Z,11.21
2023-01-07T11:36:50.855Z,11.21
2023-01-07T11:37:50.804Z,11.24
2023-01-07T11:38:50.873Z,11.24
2023-01-07T11:39:50.791Z,11.21
2023-01-07T11:40:50.806Z,11.27
2023-01-07T11:41:50.772Z,11.28
2023-01-07T11:42:50.767Z,11.28
2023-01-07T11:43:50.709Z,11.29
2023-01-07T11:44:50.744Z,11.31
2023-01-07T11:46:21.430Z,11.32
2023-01-07T11:46:51.758Z,11.32
2023-01-07T11:47:50.688Z,11.35
2023-01-07T11:48:50.676Z,11.36
2023-01-07T11:49:50.658Z,11.41
2023-01-07T11:50:50.666Z,11.43
2023-01-07T11:51:50.598Z,11.43
2023-01-07T11:52:50.730Z,11.41
2023-01-07T11:53:50.604Z,11.43
2023-01-07T11:54:50.615Z,11.41
2023-01-07T11:55:50.549Z,11.43
2023-01-07T11:56:50.601Z,11.44
2023-01-07T11:57:50.538Z,11.49
2023-01-07T11:58:50.631Z,11.52
2023-01-07T11:59:50.515Z,11.53
2023-01-07T12:00:50.555Z,11.53
2023-01-07T12:01:50.501Z,11.57
2023-01-07T12:02:50.526Z,11.56
2023-01-07T12:03:50.508Z,11.59
2023-01-07T12:04:50.591Z,11.57
2023-01-07T12:05:50.405Z,11.59
2023-01-07T12:06:50.424Z,11.54
2023-01-07T12:07:50.432Z,11.52
2023-01-07T12:08:50.444Z,11.52
2023-01-07T12:09:50.345Z,11.52
2023-01-07T12:10:50.395Z,11.50
2023-01-07T12:11:50.362Z,11.49
2023-01-07T12:12:50.349Z,11.52
2023-01-07T12:13:50.348Z,11.50
2023-01-07T12:14:50.342Z,11.50
2023-01-07T12:15:50.277Z,11.50
2023-01-07T12:16:50.512Z,11.50
2023-01-07T12:17:50.249Z,11.52
2023-01-07T12:18:50.260Z,11.54
2023-01-07T12:19:50.257Z,11.54
2023-01-07T12:20:50.241Z,11.56
2023-01-07T12:21:50.217Z,11.54
2023-01-07T12:22:50.351Z,11.62
2023-01-07T12:23:51.162Z,11.64
2023-01-07T12:24:50.212Z,11.70
2023-01-07T12:25:50.150Z,11.71
2023-01-07T12:26:50.158Z,11.72
2023-01-07T12:27:50.147Z,11.77
2023-01-07T12:28:50.250Z,11.80
2023-01-07T12:29:50.120Z,11.86
2023-01-07T12:30:50.127Z,11.89
2023-01-07T12:31:50.065Z,11.89
2023-01-07T12:32:50.125Z,11.90
2023-01-07T12:33:50.046Z,11.93
2023-01-07T12:34:50.293Z,11.94
2023-01-07T12:35:50.032Z,11.94
2023-01-07T12:36:50.039Z,11.97
2023-01-07T12:37:49.998Z,11.97
2023-01-07T12:38:50.038Z,12.01
2023-01-07T12:39:49.952Z,12.02
2023-01-07T12:40:50.079Z,12.02
2023-01-07T12:41:49.941Z,11.97
2023-01-07T12:42:49.974Z,11.97
2023-01-07T12:43:49.902Z,11.97
2023-01-07T12:44:49.944Z,11.97
2023-01-07T12:45:49.896Z,11.97
2023-01-07T12:46:49.919Z,12.01
2023-01-07T12:47:49.872Z,12.02
2023-01-07T12:48:49.859Z,12.01
2023-01-07T12:49:49.851Z,11.96
2023-01-07T12:50:49.864Z,11.94
2023-01-07T12:51:49.789Z,11.90
2023-01-07T12:52:49.947Z,11.89
2023-01-07T12:53:49.765Z,11.83
2023-01-07T12:54:49.806Z,11.82
2023-01-07T12:55:49.772Z,11.78
2023-01-07T12:56:49.786Z,11.80
2023-01-07T12:57:49.711Z,11.78
2023-01-07T12:58:49.760Z,11.75
2023-01-07T12:59:49.705Z,11.74
2023-01-07T13:00:49.733Z,11.74